메인 페이지
METAR-TAF:

METAR-TAF

공항 :

베나지르 부토 국제공항

이슬라마바드, 파키스탄

위도: 33-37N, 경도: 073-06E, 고도: 507m

현재 날씨관측

예보는 26분 전, 00:00시(UTC)에 발표되었습니다.
북동6kt
온도 24°C
습도 74%
기압 1013 hPa
시정 10km 이상
고도 4000ft 상공 구름 조금
고도 10000ft 상공 구름 보통

METAR: OPRN 220000Z 05006KT 9999 FEW040 SCT100 24/19 Q1013 NOSIG RMK A2992

시각: 05:26 (00:26 UTC)

예보

예보는 2 시간 56분 전, 21:30시(UTC)에 발표되었습니다.
예보 대상 시간: 22일 00시부터 23일 06시까지 (UTC)
동북동10kt
시정: 7000m
고도 4000ft 상공 구름 보통
고도 10000ft 상공 구름 보통
전환 중
22일 08시부터 22일 09시까지 (UTC)
남동10kt, 순간 최대 풍속 20kt
시정: 5000m
고도 4000ft 상공 구름 보통
고도 10000ft 상공 구름 많음
시계 내 뇌우
일시적
22일 14시부터 22일 22시까지 (UTC)
서북서15kt, 순간 최대 풍속 35kt
시정: 2000m
뇌우, 비

TAF: OPRN 212130Z 2200/2306 07010KT 7000 SCT040 SCT100 BECMG 2208/2209 13010G20KT 5000 VCTS FEW30TCU SCT040 BKN100 TEMPO 2214/2222 30015G35KT 2000 TSRA

4,000개 이상의 공항 관측 자료 및 예보 (METAR 및 TAF 보고).

지도상에서 검색 가능한 기상관측소가 노란 점과 빨간 점으로 표시되어 있습니다.

기상관측소 명을 보려면 표시 위로 마우스를 이동하세요.

날씨 관측과 예보를 보려면 클릭하세요.

지도 변경 : 확대하려면 엑스 표시가 있는 녹색 버튼, 축소하려면 빼기 표시가 있는 녹색 버튼, 다음 페이지의 지도를 보려면 녹색 화살표를 클릭하세요.


METAR-TAF: